createdAt,value
2022-09-11T00:03:38.349Z,9.57
2022-09-11T00:05:12.729Z,7.85
2022-09-11T00:06:46.307Z,5.72
2022-09-11T00:08:21.284Z,7.10
2022-09-11T00:09:54.230Z,7.38
2022-09-11T00:11:26.975Z,9.70
2022-09-11T00:12:59.875Z,7.85
2022-09-11T00:14:32.774Z,6.95
2022-09-11T00:16:06.440Z,6.78
2022-09-11T00:17:39.396Z,6.78
2022-09-11T00:19:12.726Z,7.85
2022-09-11T00:22:23.433Z,7.28
2022-09-11T00:23:56.414Z,7.38
2022-09-11T00:25:28.721Z,8.15
2022-09-11T00:27:01.846Z,8.30
2022-09-11T00:28:34.394Z,9.82
2022-09-11T00:30:08.233Z,7.22
2022-09-11T00:31:41.610Z,10.05
2022-09-11T00:33:15.923Z,8.05
2022-09-11T01:22:06.222Z,7.20
2022-09-11T01:23:56.146Z,8.02
2022-09-11T01:25:42.629Z,7.43
2022-09-11T01:27:43.096Z,6.82
2022-09-11T01:29:22.038Z,7.55
2022-09-11T01:30:58.135Z,7.57
2022-09-11T01:32:36.531Z,8.82
2022-09-11T01:34:16.821Z,8.35
2022-09-11T01:35:57.688Z,7.53
2022-09-11T01:37:38.174Z,7.32
2022-09-11T01:39:12.413Z,6.00
2022-09-11T01:40:51.277Z,5.97
2022-09-11T01:42:25.884Z,8.05
2022-09-11T01:44:06.958Z,8.50
2022-09-11T01:45:43.189Z,5.50
2022-09-11T01:47:19.334Z,6.20
2022-09-11T01:49:00.272Z,6.57
2022-09-11T01:50:33.594Z,6.30
2022-09-11T01:53:49.405Z,6.32
2022-09-11T01:55:29.014Z,7.90
2022-09-11T01:57:06.535Z,7.15
2022-09-11T01:58:40.606Z,9.20
2022-09-11T02:00:15.496Z,7.50
2022-09-11T02:01:52.242Z,8.52
2022-09-11T02:03:29.044Z,7.15
2022-09-11T02:05:08.155Z,9.18
2022-09-11T02:06:46.919Z,9.75
2022-09-11T02:08:22.853Z,7.40
2022-09-11T02:10:01.439Z,7.13
2022-09-11T02:11:40.831Z,7.45
2022-09-11T02:13:16.123Z,7.10
2022-09-11T02:14:51.004Z,7.50
2022-09-11T02:16:36.281Z,6.63
2022-09-11T02:18:18.249Z,7.50
2022-09-11T02:19:50.520Z,6.80
2022-09-11T02:21:24.285Z,8.20
2022-09-11T02:22:58.945Z,5.90
2022-09-11T02:24:32.198Z,8.15
2022-09-11T02:27:39.315Z,6.35
2022-09-11T02:30:45.352Z,7.10
2022-09-11T02:32:19.943Z,6.18
2022-09-11T02:33:52.949Z,7.82
2022-09-11T02:35:30.699Z,5.90
2022-09-11T02:37:23.828Z,7.38
2022-09-11T02:39:10.930Z,6.82
2022-09-11T02:40:53.364Z,9.20
2022-09-11T02:42:35.460Z,6.25
2022-09-11T02:44:17.107Z,8.02
2022-09-11T02:46:03.147Z,9.25
2022-09-11T02:47:45.102Z,6.00
2022-09-11T02:49:26.780Z,9.00
2022-09-11T02:51:06.962Z,6.10
2022-09-11T02:52:48.001Z,7.50
2022-09-11T02:54:30.186Z,7.03
2022-09-11T02:56:08.705Z,10.50
2022-09-11T02:57:48.667Z,7.07
2022-09-11T02:59:26.335Z,6.00
2022-09-11T03:01:00.300Z,6.10
2022-09-11T03:02:37.646Z,7.47
2022-09-11T03:04:11.961Z,7.13
2022-09-11T03:05:44.999Z,7.38
2022-09-11T03:07:17.933Z,6.60
2022-09-11T03:08:51.537Z,11.00
2022-09-11T03:10:24.413Z,6.50
2022-09-11T03:11:56.462Z,7.00
2022-09-11T03:13:29.434Z,5.63
2022-09-11T03:15:01.779Z,6.75
2022-09-11T03:16:35.406Z,6.68
2022-09-11T03:18:08.487Z,8.02
2022-09-11T03:19:42.813Z,6.70
2022-09-11T03:21:16.823Z,6.90
2022-09-11T03:22:49.877Z,6.32
2022-09-11T03:24:22.887Z,7.63
2022-09-11T03:25:55.498Z,8.60
2022-09-11T03:27:28.430Z,7.22
2022-09-11T03:29:01.403Z,6.15
2022-09-11T03:30:34.906Z,6.13
2022-09-11T03:32:08.479Z,7.15
2022-09-11T03:33:41.555Z,7.70
2022-09-11T03:35:23.537Z,6.88
2022-09-11T03:36:56.465Z,8.65
2022-09-11T03:38:28.396Z,8.10
2022-09-11T03:40:03.047Z,8.82
2022-09-11T03:41:35.013Z,9.70
2022-09-11T03:43:07.913Z,8.07
2022-09-11T03:44:41.461Z,8.27
2022-09-11T03:46:14.410Z,7.68
2022-09-11T03:47:47.483Z,8.82
2022-09-11T03:49:21.211Z,9.85
2022-09-11T03:50:55.670Z,9.07
2022-09-11T03:52:30.283Z,8.98
2022-09-11T03:54:03.704Z,8.27
2022-09-11T03:55:36.714Z,8.68
2022-09-11T03:57:09.950Z,9.73
2022-09-11T04:00:16.405Z,12.20
2022-09-11T04:03:23.192Z,7.85
2022-09-11T04:04:55.285Z,8.43
2022-09-11T04:06:29.630Z,9.05
2022-09-11T04:08:03.094Z,8.98
2022-09-11T04:09:35.973Z,9.27
2022-09-11T04:11:09.643Z,9.13
2022-09-11T04:12:42.616Z,9.00
2022-09-11T04:14:14.753Z,8.43
2022-09-11T04:15:47.712Z,10.32
2022-09-11T04:17:20.548Z,8.80
2022-09-11T04:18:54.155Z,9.93
2022-09-11T04:20:27.537Z,11.43
2022-09-11T04:22:01.869Z,10.57
2022-09-11T04:23:34.224Z,9.80
2022-09-11T04:25:07.848Z,9.03
2022-09-11T04:26:40.825Z,9.57
2022-09-11T04:28:12.808Z,10.25
2022-09-11T04:29:46.109Z,10.38
2022-09-11T04:32:53.320Z,10.13
2022-09-11T04:34:26.361Z,11.18
2022-09-11T04:35:59.263Z,12.57
2022-09-11T04:37:35.451Z,10.05
2022-09-11T04:39:08.402Z,10.43
2022-09-11T04:40:40.290Z,12.00
2022-09-11T04:42:13.126Z,11.32
2022-09-11T04:43:45.480Z,11.95
2022-09-11T04:45:18.888Z,11.63
2022-09-11T04:46:51.777Z,13.48
2022-09-11T04:48:23.759Z,11.90
2022-09-11T04:49:57.370Z,13.02
2022-09-11T04:51:32.004Z,11.88
2022-09-11T04:53:07.037Z,11.40
2022-09-11T04:54:40.051Z,12.40
2022-09-11T04:56:13.389Z,11.30
2022-09-11T04:57:46.351Z,11.27
2022-09-11T04:59:22.281Z,12.70
2022-09-11T05:00:55.204Z,12.63
2022-09-11T05:02:28.142Z,11.75
2022-09-11T05:04:01.754Z,12.30
2022-09-11T05:05:34.708Z,12.50
2022-09-11T05:07:07.947Z,14.27
2022-09-11T05:08:41.206Z,11.80
2022-09-11T05:11:46.778Z,13.10
2022-09-11T05:13:18.737Z,12.73
2022-09-11T05:14:51.569Z,13.40
2022-09-11T05:16:24.460Z,14.02
2022-09-11T05:17:57.879Z,14.10
2022-09-11T05:19:30.731Z,15.23
2022-09-11T05:21:04.694Z,11.63
2022-09-11T05:22:37.581Z,13.40
2022-09-11T05:24:12.052Z,12.50
2022-09-11T05:25:43.935Z,12.15
2022-09-11T05:27:16.848Z,13.25
2022-09-11T05:28:54.267Z,11.73
2022-09-11T05:30:27.201Z,13.60
2022-09-11T05:32:00.082Z,12.48
2022-09-11T05:33:31.931Z,13.75
2022-09-11T05:35:07.131Z,12.05
2022-09-11T05:36:41.401Z,12.18
2022-09-11T05:38:14.247Z,13.70
2022-09-11T05:39:48.529Z,12.23
2022-09-11T05:41:21.722Z,10.90
2022-09-11T05:42:53.628Z,12.68
2022-09-11T05:44:32.156Z,11.88
2022-09-11T05:46:08.341Z,12.85
2022-09-11T05:47:41.201Z,10.90
2022-09-11T05:49:14.201Z,11.35
2022-09-11T05:50:53.101Z,12.32
2022-09-11T05:52:25.941Z,9.90
2022-09-11T05:53:59.108Z,11.18
2022-09-11T05:55:33.604Z,11.00
2022-09-11T05:57:08.034Z,10.98
2022-09-11T05:58:41.351Z,10.88
2022-09-11T06:00:15.540Z,10.57
2022-09-11T06:01:48.463Z,10.48
2022-09-11T06:03:20.925Z,11.05
2022-09-11T06:04:53.855Z,10.68
2022-09-11T06:06:26.969Z,9.70
2022-09-11T06:08:01.454Z,9.70
2022-09-11T06:09:34.468Z,10.02
2022-09-11T06:11:09.448Z,9.48
2022-09-11T06:12:42.313Z,10.57
2022-09-11T06:14:15.194Z,9.85
2022-09-11T06:15:47.452Z,10.13
2022-09-11T06:17:20.344Z,11.52
2022-09-11T06:18:54.174Z,10.32
2022-09-11T06:20:29.061Z,9.13
2022-09-11T06:22:01.940Z,9.40
2022-09-11T06:23:35.692Z,9.55
2022-09-11T06:25:09.689Z,9.40
2022-09-11T06:26:46.446Z,9.65
2022-09-11T06:28:19.417Z,8.25
2022-09-11T06:29:52.284Z,9.18
2022-09-11T06:31:26.919Z,8.18
2022-09-11T06:32:59.836Z,9.32
2022-09-11T06:34:32.692Z,8.60
2022-09-11T06:36:07.430Z,8.00
2022-09-11T06:37:40.341Z,8.82
2022-09-11T06:39:13.244Z,8.82
2022-09-11T06:40:46.099Z,8.40
2022-09-11T06:42:20.287Z,8.40
2022-09-11T06:43:54.295Z,8.05
2022-09-11T06:45:27.483Z,10.05
2022-09-11T06:47:00.383Z,8.95
2022-09-11T06:48:33.386Z,8.07
2022-09-11T06:50:07.069Z,8.93
2022-09-11T06:51:40.057Z,9.95
2022-09-11T06:53:14.169Z,8.13
2022-09-11T06:54:47.075Z,7.68
2022-09-11T06:56:22.306Z,7.90
2022-09-11T06:57:55.515Z,8.52
2022-09-11T06:59:28.646Z,8.15
2022-09-11T07:01:03.838Z,8.15
2022-09-11T07:02:36.001Z,9.65
2022-09-11T07:04:10.306Z,7.65
2022-09-11T07:05:47.137Z,7.72
2022-09-11T07:07:20.074Z,7.13
2022-09-11T07:08:54.645Z,7.85
2022-09-11T07:10:28.217Z,7.50
2022-09-11T07:12:01.087Z,7.43
2022-09-11T07:13:37.565Z,8.13
2022-09-11T07:15:11.939Z,7.07
2022-09-11T07:16:44.827Z,6.53
2022-09-11T07:18:18.254Z,7.20
2022-09-11T07:19:52.293Z,7.55
2022-09-11T07:21:26.841Z,7.45
2022-09-11T07:22:59.925Z,7.70
2022-09-11T07:24:33.146Z,8.32
2022-09-11T07:27:39.168Z,7.78
2022-09-11T07:29:13.893Z,9.23
2022-09-11T07:30:46.861Z,7.00
2022-09-11T07:32:19.931Z,7.05
2022-09-11T07:33:54.959Z,9.43
2022-09-11T07:35:27.888Z,8.13
2022-09-11T07:37:00.804Z,7.35
2022-09-11T07:38:33.679Z,7.45
2022-09-11T07:40:07.280Z,7.50
2022-09-11T07:41:40.191Z,6.80
2022-09-11T07:43:13.663Z,9.55
2022-09-11T07:44:48.045Z,6.10
2022-09-11T07:46:21.362Z,7.00
2022-09-11T07:49:27.897Z,9.23
2022-09-11T07:51:03.027Z,7.45
2022-09-11T07:52:37.061Z,6.88
2022-09-11T07:54:10.926Z,6.63
2022-09-11T07:55:43.774Z,6.55
2022-09-11T07:57:16.652Z,6.38
2022-09-11T07:58:49.878Z,5.43
2022-09-11T08:01:57.140Z,5.25
2022-09-11T08:05:03.965Z,6.10
2022-09-11T08:06:38.333Z,6.55
2022-09-11T08:08:11.193Z,6.05
2022-09-11T08:09:44.053Z,5.95
2022-09-11T08:11:18.321Z,5.95
2022-09-11T08:12:54.779Z,6.10
2022-09-11T08:14:31.242Z,6.60
2022-09-11T08:16:06.136Z,6.43
2022-09-11T08:17:39.002Z,6.30
2022-09-11T08:19:18.451Z,8.05
2022-09-11T08:20:51.345Z,6.63
2022-09-11T08:22:24.223Z,6.30
2022-09-11T08:23:57.096Z,5.85
2022-09-11T08:25:29.973Z,5.63
2022-09-11T08:27:05.248Z,5.82
2022-09-11T08:28:39.143Z,6.55
2022-09-11T08:30:12.708Z,6.95
2022-09-11T08:31:47.023Z,5.68
2022-09-11T08:33:20.058Z,5.15
2022-09-11T08:34:53.051Z,7.47
2022-09-11T08:36:25.478Z,6.05
2022-09-11T08:37:59.229Z,4.97
2022-09-11T08:39:32.609Z,6.15
2022-09-11T08:41:13.927Z,5.75
2022-09-11T08:42:48.777Z,5.70
2022-09-11T08:44:24.168Z,4.90
2022-09-11T08:46:02.203Z,5.78
2022-09-11T08:47:40.078Z,5.07
2022-09-11T08:49:20.335Z,4.72
2022-09-11T08:50:53.323Z,5.35
2022-09-11T08:52:26.277Z,4.20
2022-09-11T08:54:01.943Z,5.28
2022-09-11T08:55:39.449Z,4.95
2022-09-11T08:57:20.471Z,5.30
2022-09-11T08:59:14.205Z,4.72
2022-09-11T09:00:55.086Z,4.05
2022-09-11T09:02:50.538Z,5.55
2022-09-11T09:04:42.327Z,4.07
2022-09-11T09:06:49.321Z,4.32
2022-09-11T09:08:37.320Z,4.78
2022-09-11T09:10:21.239Z,5.60
2022-09-11T09:12:00.822Z,5.55
2022-09-11T09:13:54.817Z,5.85
2022-09-11T09:15:42.883Z,6.25
2022-09-11T09:17:19.426Z,6.32
2022-09-11T09:19:00.772Z,6.38
2022-09-11T09:20:37.318Z,6.55
2022-09-11T09:22:15.431Z,6.28
2022-09-11T09:24:03.177Z,5.85
2022-09-11T09:25:41.006Z,6.20
2022-09-11T09:27:19.003Z,5.75
2022-09-11T09:28:56.637Z,7.13
2022-09-11T09:30:35.426Z,7.07
2022-09-11T09:32:15.544Z,6.40
2022-09-11T09:33:53.428Z,7.15
2022-09-11T09:35:35.557Z,6.15
2022-09-11T09:37:16.166Z,5.55
2022-09-11T09:38:49.344Z,5.50
2022-09-11T09:40:25.654Z,6.10
2022-09-11T09:42:16.161Z,6.20
2022-09-11T09:43:57.205Z,5.82
2022-09-11T09:45:48.969Z,6.35
2022-09-11T09:47:22.086Z,7.25
2022-09-11T09:48:55.959Z,6.88
2022-09-11T09:50:33.388Z,5.85
2022-09-11T09:52:17.797Z,6.15
2022-09-11T09:53:56.346Z,6.47
2022-09-11T09:55:30.654Z,7.20
2022-09-11T09:57:06.881Z,6.70
2022-09-11T09:58:44.154Z,5.45
2022-09-11T10:00:19.857Z,6.80
2022-09-11T10:01:55.147Z,6.45
2022-09-11T10:03:28.485Z,6.97
2022-09-11T10:06:45.369Z,5.43
2022-09-11T10:08:31.755Z,5.35
2022-09-11T10:10:04.993Z,7.32
2022-09-11T10:13:25.046Z,6.53
2022-09-11T10:15:00.128Z,6.75
2022-09-11T10:16:33.170Z,7.35
2022-09-11T10:18:42.983Z,8.10
2022-09-11T10:20:25.865Z,6.20
2022-09-11T10:22:22.913Z,6.38
2022-09-11T10:23:57.591Z,5.97
2022-09-11T10:25:30.968Z,7.10
2022-09-11T10:27:04.933Z,6.32
2022-09-11T10:28:38.945Z,7.55
2022-09-11T10:30:27.477Z,7.50
2022-09-11T10:32:02.360Z,7.60
2022-09-11T10:33:39.567Z,6.93
2022-09-11T10:35:12.673Z,7.53
2022-09-11T10:36:54.103Z,8.00
2022-09-11T10:38:31.971Z,6.57
2022-09-11T10:40:08.731Z,7.43
2022-09-11T10:41:50.018Z,7.65
2022-09-11T10:43:25.408Z,9.43
2022-09-11T10:45:08.535Z,9.95
2022-09-11T10:46:43.990Z,7.57
2022-09-11T10:48:22.325Z,8.07
2022-09-11T10:50:20.421Z,9.88
2022-09-11T10:52:05.518Z,8.38
2022-09-11T10:53:51.554Z,9.00
2022-09-11T10:55:26.941Z,7.95
2022-09-11T10:57:08.940Z,7.75
2022-09-11T10:58:47.295Z,8.43
2022-09-11T11:00:21.737Z,7.57
2022-09-11T11:01:54.799Z,7.72
2022-09-11T11:05:04.965Z,8.32
2022-09-11T11:06:50.561Z,9.98
2022-09-11T11:09:03.510Z,8.00
2022-09-11T11:10:52.181Z,8.50
2022-09-11T11:12:41.442Z,7.68
2022-09-11T11:14:49.884Z,7.97
2022-09-11T11:16:35.025Z,7.90
2022-09-11T11:18:23.744Z,9.02
2022-09-11T11:20:12.339Z,8.93
2022-09-11T11:21:55.842Z,7.63
2022-09-11T11:23:52.721Z,8.23
2022-09-11T11:25:32.374Z,8.38
2022-09-11T11:27:29.951Z,7.70
2022-09-11T11:29:45.709Z,7.28
2022-09-11T11:31:46.504Z,8.40
2022-09-11T11:33:37.259Z,8.32
2022-09-11T11:35:24.039Z,10.45
2022-09-11T11:37:03.899Z,8.32
2022-09-11T11:38:43.687Z,8.45
2022-09-11T11:40:23.825Z,9.00
2022-09-11T11:42:08.110Z,8.63
2022-09-11T11:43:43.481Z,7.85
2022-09-11T11:45:23.346Z,13.38
2022-09-11T11:47:01.487Z,7.72
2022-09-11T11:48:41.926Z,8.68
2022-09-11T11:50:31.921Z,8.90
2022-09-11T11:52:14.054Z,9.32
2022-09-11T11:53:59.690Z,9.00
2022-09-11T11:55:42.606Z,8.93
2022-09-11T11:57:22.210Z,11.05
2022-09-11T11:58:59.950Z,10.57
2022-09-11T12:00:39.035Z,10.90
2022-09-11T12:02:19.114Z,10.57
2022-09-11T12:03:56.921Z,9.27
2022-09-11T12:05:33.796Z,11.18
2022-09-11T12:07:13.707Z,9.52
2022-09-11T12:08:47.916Z,8.55
2022-09-11T12:10:26.891Z,9.32
2022-09-11T12:12:07.228Z,9.35
2022-09-11T12:13:46.297Z,11.98
2022-09-11T12:15:22.074Z,15.02
2022-09-11T12:16:56.326Z,18.40
2022-09-11T12:18:29.851Z,9.68
2022-09-11T12:20:29.829Z,8.90
2022-09-11T12:22:11.558Z,8.80
2022-09-11T12:24:19.833Z,6.40
2022-09-11T12:26:19.628Z,8.32
2022-09-11T12:28:11.658Z,6.55
2022-09-11T12:29:56.496Z,6.05
2022-09-11T12:32:08.061Z,6.70
2022-09-11T12:33:57.886Z,6.38
2022-09-11T12:35:38.306Z,7.07
2022-09-11T12:37:16.675Z,7.25
2022-09-11T12:38:53.900Z,7.13
2022-09-11T12:40:33.315Z,7.55
2022-09-11T12:42:43.422Z,7.75
2022-09-11T12:44:31.911Z,7.78
2022-09-11T12:46:06.276Z,8.70
2022-09-11T12:47:39.891Z,8.02
2022-09-11T12:49:22.973Z,7.35
2022-09-11T12:50:57.999Z,9.43
2022-09-11T12:52:40.469Z,7.80
2022-09-11T12:54:16.625Z,7.68
2022-09-11T12:56:01.282Z,6.75
2022-09-11T12:57:38.345Z,7.13
2022-09-11T12:59:11.577Z,6.97
2022-09-11T13:02:29.226Z,7.38
2022-09-11T13:04:12.890Z,8.18
2022-09-11T13:07:35.146Z,7.40
2022-09-11T13:09:17.902Z,7.20
2022-09-11T13:10:51.582Z,6.35
2022-09-11T13:12:51.813Z,6.30
2022-09-11T13:14:47.998Z,6.70
2022-09-11T13:16:25.596Z,8.68
2022-09-11T13:17:58.708Z,8.02
2022-09-11T13:19:33.956Z,7.72
2022-09-11T13:21:22.127Z,6.47
2022-09-11T13:23:16.541Z,5.22
2022-09-11T13:24:49.637Z,6.03
2022-09-11T13:26:30.265Z,5.97
2022-09-11T13:28:06.834Z,6.18
2022-09-11T13:29:42.836Z,5.75
2022-09-11T13:31:19.371Z,5.93
2022-09-11T13:33:04.612Z,7.22
2022-09-11T13:34:37.759Z,8.43
2022-09-11T13:37:58.144Z,6.00
2022-09-11T13:39:32.598Z,5.78
2022-09-11T13:41:08.385Z,6.35
2022-09-11T13:42:40.734Z,6.20
2022-09-11T13:44:32.196Z,5.78
2022-09-11T13:46:18.854Z,5.10
2022-09-11T13:47:52.838Z,5.50
2022-09-11T13:49:36.068Z,7.05
2022-09-11T13:51:14.207Z,4.47
2022-09-11T13:52:48.932Z,4.43
2022-09-11T13:54:28.550Z,3.95
2022-09-11T13:56:01.550Z,3.72
2022-09-11T13:57:34.732Z,4.82
2022-09-11T14:01:11.368Z,5.45
2022-09-11T14:02:50.520Z,4.18
2022-09-11T14:04:22.639Z,5.07
2022-09-11T14:05:57.495Z,5.10
2022-09-11T14:07:30.455Z,5.53
2022-09-11T14:09:04.967Z,6.05
2022-09-11T14:10:47.054Z,5.28
2022-09-11T14:12:20.320Z,5.82
2022-09-11T14:13:57.169Z,6.78
2022-09-11T14:15:37.919Z,6.80
2022-09-11T14:17:13.772Z,7.03
2022-09-11T14:18:49.155Z,7.28
2022-09-11T14:20:22.964Z,7.97
2022-09-11T14:21:55.833Z,6.78
2022-09-11T14:23:30.552Z,7.85
2022-09-11T14:25:21.399Z,8.45
2022-09-11T14:26:55.059Z,8.18
2022-09-11T14:29:00.913Z,8.02
2022-09-11T14:30:37.667Z,8.00
2022-09-11T14:32:35.739Z,7.20
2022-09-11T14:34:19.643Z,6.95
2022-09-11T14:35:54.762Z,8.18
2022-09-11T14:37:31.192Z,7.68
2022-09-11T14:39:05.274Z,8.30
2022-09-11T14:40:48.504Z,8.68
2022-09-11T14:42:24.520Z,8.73
2022-09-11T14:43:58.812Z,10.65
2022-09-11T14:45:31.376Z,7.93
2022-09-11T14:47:04.273Z,6.93
2022-09-11T14:48:37.444Z,7.45
2022-09-11T14:51:48.894Z,6.30
2022-09-11T14:53:33.281Z,8.05
2022-09-11T14:55:07.127Z,7.53
2022-09-11T14:56:41.512Z,8.48
2022-09-11T14:58:14.418Z,8.93
2022-09-11T14:59:47.608Z,7.50
2022-09-11T15:02:53.794Z,6.45
2022-09-11T15:04:27.354Z,8.90
2022-09-11T15:06:00.260Z,7.88
2022-09-11T15:07:35.414Z,7.70
2022-09-11T15:09:08.498Z,6.78
2022-09-11T15:10:41.446Z,6.53
2022-09-11T15:12:16.356Z,5.93
2022-09-11T15:14:13.401Z,6.82
2022-09-11T15:15:42.599Z,5.95
2022-09-11T15:18:50.883Z,6.45
2022-09-11T15:20:27.622Z,6.38
2022-09-11T15:22:00.549Z,6.32
2022-09-11T15:23:33.842Z,5.38
2022-09-11T15:25:07.758Z,6.85
2022-09-11T15:26:40.735Z,6.80
2022-09-11T15:28:15.096Z,6.03
2022-09-11T15:29:49.610Z,7.30
2022-09-11T15:31:23.735Z,6.05
2022-09-11T15:32:55.709Z,7.18
2022-09-11T15:34:29.124Z,5.82
2022-09-11T15:36:03.488Z,6.28
2022-09-11T15:37:36.512Z,5.90
2022-09-11T15:39:14.014Z,7.32
2022-09-11T15:40:47.104Z,7.00
2022-09-11T15:42:20.618Z,10.23
2022-09-11T15:43:55.381Z,6.10
2022-09-11T15:45:28.384Z,6.38
2022-09-11T15:47:00.401Z,6.20
2022-09-11T15:48:34.173Z,6.10
2022-09-11T15:50:08.229Z,9.27
2022-09-11T15:51:41.386Z,6.68
2022-09-11T15:54:48.830Z,6.28
2022-09-11T15:56:25.963Z,7.32
2022-09-11T15:58:01.352Z,6.80
2022-09-11T15:59:35.819Z,6.35
2022-09-11T16:01:17.909Z,8.20
2022-09-11T16:02:52.479Z,7.05
2022-09-11T16:04:28.570Z,7.45
2022-09-11T16:06:02.727Z,6.45
2022-09-11T16:07:35.631Z,6.65
2022-09-11T16:09:10.306Z,6.20
2022-09-11T16:10:43.859Z,7.13
2022-09-11T16:12:17.401Z,6.57
2022-09-11T16:13:50.829Z,7.20
2022-09-11T16:15:25.428Z,6.57
2022-09-11T16:16:58.436Z,8.10
2022-09-11T16:18:32.843Z,6.60
2022-09-11T16:20:06.766Z,7.65
2022-09-11T16:21:39.710Z,7.45
2022-09-11T16:23:13.014Z,7.43
2022-09-11T16:24:46.119Z,6.10
2022-09-11T16:26:20.743Z,6.82
2022-09-11T16:27:57.304Z,7.10
2022-09-11T16:29:51.205Z,6.80
2022-09-11T16:31:24.543Z,7.50
2022-09-11T16:32:57.487Z,7.82
2022-09-11T16:34:31.315Z,8.55
2022-09-11T16:36:06.817Z,7.22
2022-09-11T16:37:39.810Z,6.70
2022-09-11T16:39:15.625Z,7.93
2022-09-11T16:40:48.589Z,7.68
2022-09-11T16:42:22.125Z,7.82
2022-09-11T16:43:54.263Z,7.68
2022-09-11T16:45:28.342Z,8.38
2022-09-11T16:47:02.672Z,8.82
2022-09-11T16:48:37.034Z,8.18
2022-09-11T16:50:10.615Z,7.25
2022-09-11T16:51:43.453Z,7.78
2022-09-11T16:53:16.374Z,8.55
2022-09-11T16:54:49.394Z,8.68
2022-09-11T16:56:24.352Z,7.03
2022-09-11T16:57:57.297Z,9.30
2022-09-11T16:59:30.439Z,7.63
2022-09-11T17:02:38.544Z,7.10
2022-09-11T17:04:11.502Z,7.35
2022-09-11T17:05:48.665Z,7.13
2022-09-11T17:07:21.762Z,8.15
2022-09-11T17:08:54.685Z,7.13
2022-09-11T17:10:27.926Z,8.80
2022-09-11T17:13:34.701Z,6.85
2022-09-11T17:15:09.229Z,10.07
2022-09-11T17:16:42.150Z,6.60
2022-09-11T17:18:17.763Z,7.07
2022-09-11T17:19:51.164Z,7.63
2022-09-11T17:21:26.030Z,7.85
2022-09-11T17:22:59.011Z,7.05
2022-09-11T17:24:32.049Z,7.97
2022-09-11T17:26:07.823Z,7.63
2022-09-11T17:27:40.770Z,8.50
2022-09-11T17:29:13.758Z,6.55
2022-09-11T17:30:47.541Z,8.32
2022-09-11T17:32:29.161Z,7.63
2022-09-11T17:34:03.728Z,7.15
2022-09-11T17:35:35.653Z,9.73
2022-09-11T17:37:09.976Z,9.07
2022-09-11T17:38:43.528Z,7.80
2022-09-11T17:40:17.728Z,7.80
2022-09-11T17:41:50.759Z,8.20
2022-09-11T17:43:23.860Z,8.05
2022-09-11T17:44:57.312Z,7.55
2022-09-11T17:46:30.413Z,7.43
2022-09-11T17:48:03.627Z,7.82
2022-09-11T17:49:38.015Z,8.43
2022-09-11T17:51:12.977Z,8.77
2022-09-11T17:52:45.937Z,7.47
2022-09-11T17:54:18.890Z,9.18
2022-09-11T17:55:51.820Z,8.23
2022-09-11T17:57:25.407Z,7.45
2022-09-11T17:58:59.681Z,8.00
2022-09-11T18:00:32.999Z,14.32
2022-09-11T18:02:06.824Z,14.38
2022-09-11T18:03:39.975Z,9.20
2022-09-11T18:05:14.345Z,7.88
2022-09-11T18:06:47.643Z,8.18
2022-09-11T18:09:56.403Z,9.75
2022-09-11T18:11:29.628Z,8.13
2022-09-11T18:13:03.012Z,9.38
2022-09-11T18:14:38.799Z,8.90
2022-09-11T18:16:11.985Z,9.85
2022-09-11T18:19:21.222Z,9.18
2022-09-11T18:20:55.969Z,11.35
2022-09-11T18:22:29.936Z,11.18
2022-09-11T18:24:03.781Z,10.48
2022-09-11T18:25:39.818Z,12.48
2022-09-11T18:27:12.892Z,11.15
2022-09-11T18:28:46.885Z,11.65
2022-09-11T18:30:20.760Z,11.73
2022-09-11T18:31:54.701Z,11.88
2022-09-11T18:33:28.885Z,11.02
2022-09-11T18:35:04.506Z,11.60
2022-09-11T18:36:38.948Z,11.63
2022-09-11T18:38:12.743Z,11.73
2022-09-11T18:39:46.589Z,13.05
2022-09-11T18:41:20.041Z,10.90
2022-09-11T18:42:54.596Z,11.57
2022-09-11T18:44:31.383Z,11.80
2022-09-11T18:46:05.267Z,12.85
2022-09-11T18:47:38.254Z,10.05
2022-09-11T18:49:13.978Z,10.65
2022-09-11T18:50:47.183Z,9.98
2022-09-11T18:54:00.228Z,11.27
2022-09-11T18:55:33.406Z,10.60
2022-09-11T18:57:06.584Z,12.10
2022-09-11T19:00:16.847Z,11.55
2022-09-11T19:01:50.083Z,11.00
2022-09-11T19:04:56.409Z,11.52
2022-09-11T19:06:32.710Z,12.52
2022-09-11T19:08:07.054Z,11.40
2022-09-11T19:09:45.184Z,11.13
2022-09-11T19:11:21.879Z,10.98
2022-09-11T19:12:55.246Z,13.60
2022-09-11T19:14:28.226Z,11.02
2022-09-11T19:16:01.421Z,10.77
2022-09-11T19:19:08.142Z,11.32
2022-09-11T19:20:41.308Z,15.27
2022-09-11T19:22:15.720Z,12.90
2022-09-11T19:23:53.129Z,12.27
2022-09-11T19:25:30.082Z,16.33
2022-09-11T19:27:03.198Z,13.93
2022-09-11T19:28:36.472Z,14.38
2022-09-11T19:31:42.973Z,13.63
2022-09-11T19:34:48.880Z,13.50
2022-09-11T19:36:23.517Z,12.35
2022-09-11T19:37:56.565Z,11.48
2022-09-11T19:39:30.928Z,12.43
2022-09-11T19:41:05.477Z,14.00
2022-09-11T19:42:38.449Z,15.63
2022-09-11T19:44:14.058Z,15.27
2022-09-11T19:45:47.137Z,14.90
2022-09-11T19:47:20.615Z,13.57
2022-09-11T19:48:56.678Z,13.13
2022-09-11T19:50:33.816Z,12.73
2022-09-11T19:52:08.130Z,12.38
2022-09-11T19:53:42.263Z,14.02
2022-09-11T19:55:16.858Z,12.00
2022-09-11T19:56:50.957Z,11.57
2022-09-11T19:58:24.583Z,11.65
2022-09-11T19:59:57.561Z,10.70
2022-09-11T20:01:31.269Z,12.77
2022-09-11T20:03:04.374Z,14.40
2022-09-11T20:04:37.337Z,14.05
2022-09-11T20:06:11.550Z,13.50
2022-09-11T20:07:44.867Z,13.82
2022-09-11T20:11:08.273Z,15.10
2022-09-11T20:12:41.521Z,13.07
2022-09-11T20:15:47.364Z,12.80
2022-09-11T20:17:20.301Z,12.57
2022-09-11T20:18:54.673Z,15.35
2022-09-11T20:20:28.778Z,14.02
2022-09-11T20:22:01.711Z,14.45
2022-09-11T20:23:34.847Z,13.15
2022-09-11T20:25:08.516Z,13.65
2022-09-11T20:26:42.969Z,13.95
2022-09-11T20:28:16.287Z,13.25
2022-09-11T20:31:24.958Z,14.05
2022-09-11T20:32:58.083Z,12.88
2022-09-11T20:34:31.453Z,14.38
2022-09-11T20:36:04.041Z,14.93
2022-09-11T20:37:37.514Z,14.23
2022-09-11T20:39:13.321Z,14.68
2022-09-11T20:40:46.575Z,15.85
2022-09-11T20:43:54.496Z,13.65
2022-09-11T20:45:27.427Z,12.32
2022-09-11T20:47:00.598Z,15.50
2022-09-11T20:50:07.779Z,13.45
2022-09-11T20:51:40.943Z,13.38
2022-09-11T20:53:14.175Z,14.98
2022-09-11T20:58:00.578Z,13.93
2022-09-11T20:59:34.408Z,17.35
2022-09-11T21:01:08.711Z,14.80
2022-09-11T21:02:41.682Z,14.88
2022-09-11T21:04:14.649Z,14.00
2022-09-11T21:05:46.550Z,12.60
2022-09-11T21:07:19.938Z,17.08
2022-09-11T21:08:55.787Z,17.50
2022-09-11T21:10:28.915Z,16.05
2022-09-11T21:12:02.844Z,13.68
2022-09-11T21:13:38.499Z,14.43
2022-09-11T21:15:11.640Z,15.05
2022-09-11T21:16:45.193Z,12.75
2022-09-11T21:18:17.913Z,13.02
2022-09-11T21:19:55.432Z,14.65
2022-09-11T21:21:30.830Z,11.80
2022-09-11T21:23:03.778Z,15.02
2022-09-11T21:24:37.856Z,12.23
2022-09-11T21:26:10.522Z,13.43
2022-09-11T21:27:43.507Z,12.52
2022-09-11T21:29:17.786Z,13.18
2022-09-11T21:30:51.042Z,12.68
2022-09-11T21:33:57.226Z,12.40
2022-09-11T21:37:02.287Z,13.02
2022-09-11T21:40:09.399Z,13.25
2022-09-11T21:41:42.392Z,13.52
2022-09-11T21:43:17.772Z,12.23
2022-09-11T21:44:52.042Z,13.38
2022-09-11T21:46:25.756Z,15.77
2022-09-11T21:47:58.695Z,14.73
2022-09-11T21:49:31.658Z,13.68
2022-09-11T21:51:09.993Z,13.20
2022-09-11T21:52:44.803Z,13.15
2022-09-11T21:54:19.323Z,12.20
2022-09-11T21:55:52.365Z,13.52
2022-09-11T21:57:29.123Z,15.57
2022-09-11T21:59:02.775Z,13.90
2022-09-11T22:00:43.011Z,13.32
2022-09-11T22:02:17.829Z,13.02
2022-09-11T22:03:51.117Z,13.57
2022-09-11T22:05:24.167Z,14.20
2022-09-11T22:06:57.059Z,12.60
2022-09-11T22:08:29.015Z,17.75
2022-09-11T22:10:03.514Z,13.48
2022-09-11T22:11:36.363Z,15.68
2022-09-11T22:13:10.418Z,14.93
2022-09-11T22:14:44.850Z,14.52
2022-09-11T22:16:20.940Z,15.00
2022-09-11T22:17:53.858Z,17.67
2022-09-11T22:19:26.931Z,15.95
2022-09-11T22:21:01.373Z,13.52
2022-09-11T22:22:37.870Z,13.73
2022-09-11T22:24:11.267Z,14.43
2022-09-11T22:25:44.144Z,14.27
2022-09-11T22:27:17.134Z,15.55
2022-09-11T22:28:49.589Z,14.10
2022-09-11T22:30:23.544Z,15.90
2022-09-11T22:31:57.791Z,13.20
2022-09-11T22:33:30.938Z,15.48
2022-09-11T22:35:03.913Z,15.52
2022-09-11T22:36:36.825Z,13.70
2022-09-11T22:38:09.777Z,13.85
2022-09-11T22:39:42.709Z,13.95
2022-09-11T22:41:18.488Z,13.85
2022-09-11T22:42:51.363Z,14.52
2022-09-11T22:44:24.282Z,16.05
2022-09-11T22:45:56.268Z,15.50
2022-09-11T22:47:30.630Z,13.30
2022-09-11T22:49:04.407Z,14.93
2022-09-11T22:50:37.296Z,14.05
2022-09-11T22:52:10.196Z,16.20
2022-09-11T22:53:43.107Z,14.52
2022-09-11T22:55:16.189Z,13.55
2022-09-11T22:56:49.219Z,14.27
2022-09-11T22:58:23.122Z,13.55
2022-09-11T22:59:56.016Z,12.32
2022-09-11T23:01:29.055Z,14.23
2022-09-11T23:03:03.504Z,12.77
2022-09-11T23:04:36.776Z,12.95
2022-09-11T23:08:00.400Z,15.20